Time;durP1;ratioP1;P1;durP2;ratioP2;P2;SDS_P1;SDS_P2;PMS_P1;PMS_P2;Temp;Humidity;BMP_temperature;BMP_pressure;BME280_temperature;BME280_humidity;BME280_pressure;Samples;Min_cycle;Max_cycle;Signal;HPM_P1;HPM_P2
2023/01/07 00:00:51;;;;;;;23.33;11.75;;;;;;;8.45;100.00;101469.91;5054202;28;20036;-72
2023/01/07 00:03:17;;;;;;;22.73;11.60;;;;;;;8.51;100.00;101477.06;5053894;28;20033;-77
2023/01/07 00:05:43;;;;;;;23.90;12.13;;;;;;;8.44;100.00;101477.75;5054094;28;20025;-71
2023/01/07 00:08:09;;;;;;;23.80;12.20;;;;;;;8.43;100.00;101484.78;5053809;28;20452;-72
2023/01/07 00:10:34;;;;;;;24.13;12.38;;;;;;;8.47;100.00;101476.09;5054017;28;20396;-72
2023/01/07 00:13:00;;;;;;;23.42;12.27;;;;;;;8.43;100.00;101468.97;5049766;28;20033;-72
2023/01/07 00:15:26;;;;;;;24.52;12.90;;;;;;;8.42;100.00;101466.28;5053678;28;20084;-72
2023/01/07 00:17:51;;;;;;;23.60;12.73;;;;;;;8.47;100.00;101467.31;5053605;28;20063;-77
2023/01/07 00:20:17;;;;;;;25.55;13.93;;;;;;;8.48;100.00;101464.72;5053726;28;20068;-73
2023/01/07 00:22:42;;;;;;;24.77;13.32;;;;;;;8.51;100.00;101461.28;5053667;28;20029;-72
2023/01/07 00:25:08;;;;;;;25.40;13.98;;;;;;;8.51;100.00;101461.28;5053502;28;20025;-72
2023/01/07 00:27:33;;;;;;;24.25;13.50;;;;;;;8.57;100.00;101465.78;5053631;28;20029;-76
2023/01/07 00:29:58;;;;;;;25.63;14.57;;;;;;;8.53;100.00;101460.47;5053472;28;20025;-71
2023/01/07 00:32:46;;;;;;;26.05;14.07;;;;;;;8.58;100.00;101460.56;5053266;28;20040;-72
2023/01/07 00:35:21;;;;;;;24.58;13.45;;;;;;;8.58;100.00;101442.09;5050857;28;20071;-72
2023/01/07 00:37:50;;;;;;;25.38;13.75;;;;;;;8.55;100.00;101453.47;5053392;28;20107;-72
2023/01/07 00:40:16;;;;;;;26.15;13.55;;;;;;;8.52;100.00;101442.84;5053236;28;20029;-72
2023/01/07 00:42:54;;;;;;;24.80;13.60;;;;;;;8.54;100.00;101445.53;5053071;28;20032;-72
2023/01/07 00:45:23;;;;;;;26.67;13.75;;;;;;;8.52;100.00;101455.16;5052839;28;20025;-77
2023/01/07 00:47:52;;;;;;;27.02;14.63;;;;;;;8.50;100.00;101439.31;5053211;28;20040;-72
2023/01/07 00:50:19;;;;;;;27.08;15.13;;;;;;;8.55;100.00;101442.91;5052796;28;20080;-72
2023/01/07 00:52:45;;;;;;;26.50;14.52;;;;;;;8.55;100.00;101431.50;5053080;28;20025;-73
2023/01/07 00:55:10;;;;;;;25.75;14.20;;;;;;;8.58;100.00;101421.03;5053147;28;20025;-73
2023/01/07 00:57:35;;;;;;;25.75;13.93;;;;;;;8.58;100.00;101428.94;5052906;28;20029;-72
2023/01/07 01:00:01;;;;;;;25.23;13.40;;;;;;;8.55;100.00;101415.69;5052842;28;20025;-72
2023/01/07 01:02:26;;;;;;;25.48;13.45;;;;;;;8.58;100.00;101415.75;5053093;28;20028;-75
2023/01/07 01:04:51;;;;;;;25.85;12.75;;;;;;;8.58;100.00;101412.19;5052891;28;20064;-72
2023/01/07 01:07:17;;;;;;;24.08;12.60;;;;;;;8.55;100.00;101415.69;5052699;28;20029;-72
2023/01/07 01:09:42;;;;;;;24.92;12.65;;;;;;;8.52;100.00;101411.22;5052961;28;20048;-73
2023/01/07 01:12:07;;;;;;;23.85;11.93;;;;;;;8.45;100.00;101408.44;5052589;28;20434;-72
2023/01/07 01:14:33;;;;;;;24.85;12.82;;;;;;;8.42;100.00;101405.66;5052578;28;20056;-73
2023/01/07 01:16:58;;;;;;;22.58;12.13;;;;;;;8.43;100.00;101400.47;5052843;28;20032;-74
2023/01/07 01:19:23;;;;;;;24.17;12.82;;;;;;;8.37;100.00;101409.13;5052584;28;20025;-73
2023/01/07 01:21:49;;;;;;;23.60;12.35;;;;;;;8.45;100.00;101403.16;5052818;28;20075;-72
2023/01/07 01:24:14;;;;;;;23.67;11.95;;;;;;;8.39;100.00;101395.97;5052455;28;20033;-72
2023/01/07 01:26:40;;;;;;;24.00;11.90;;;;;;;8.40;100.00;101392.47;5052519;28;20025;-73
2023/01/07 01:29:05;;;;;;;23.75;11.90;;;;;;;8.40;100.00;101394.22;5052643;28;20029;-75
2023/01/07 01:31:31;;;;;;;23.33;11.55;;;;;;;8.37;100.00;101385.41;5052419;28;20044;-72
2023/01/07 01:33:56;;;;;;;23.65;12.18;;;;;;;8.36;100.00;101393.28;5052291;28;20361;-72
2023/01/07 01:36:22;;;;;;;23.10;11.50;;;;;;;8.40;100.00;101383.69;5052584;28;20033;-72
2023/01/07 01:38:48;;;;;;;23.25;11.75;;;;;;;8.41;100.00;101388.13;5052348;28;20025;-71
2023/01/07 01:41:17;;;;;;;23.77;11.60;;;;;;;8.33;100.00;101380.94;5052331;28;20113;-72
2023/01/07 01:43:46;;;;;;;24.05;11.48;;;;;;;8.36;100.00;101388.00;5034490;28;20028;-71
2023/01/07 01:46:15;;;;;;;24.15;11.80;;;;;;;8.25;100.00;101390.38;5050495;28;20033;-72
2023/01/07 01:48:48;;;;;;;22.15;10.13;;;;;;;8.31;100.00;101390.53;5048324;28;20032;-73
2023/01/07 01:51:16;;;;;;;23.73;11.10;;;;;;;8.30;100.00;101382.59;5051943;28;20067;-72
2023/01/07 01:53:42;;;;;;;22.33;10.60;;;;;;;8.32;100.00;101386.16;5052586;28;20033;-72
2023/01/07 01:56:32;;;;;;;22.20;10.45;;;;;;;8.32;100.00;101381.78;5052158;28;20036;-74
2023/01/07 01:59:04;;;;;;;23.75;10.85;;;;;;;8.31;100.00;101384.38;5053830;28;20551;-72
2023/01/07 02:01:32;;;;;;;22.30;10.43;;;;;;;8.32;100.00;101381.78;5056344;28;20063;-73
2023/01/07 02:03:59;;;;;;;23.15;11.13;;;;;;;8.26;100.00;101391.31;5056653;28;20024;-71
2023/01/07 02:06:28;;;;;;;23.80;10.77;;;;;;;8.29;100.00;101383.47;5056126;28;20029;-71
2023/01/07 02:08:54;;;;;;;22.92;10.80;;;;;;;8.28;100.00;101384.31;5056085;28;20021;-72
2023/01/07 02:11:37;;;;;;;23.23;10.75;;;;;;;8.26;100.00;101380.75;5056281;28;20044;-78
2023/01/07 02:14:36;;;;;;;22.17;10.57;;;;;;;8.24;100.00;101393.88;5056207;28;20468;-72
2023/01/07 02:17:18;;;;;;;23.05;10.88;;;;;;;8.29;100.00;101383.47;5055350;28;20033;-72
2023/01/07 02:20:09;;;;;;;22.73;10.90;;;;;;;8.23;100.00;101391.19;5034914;28;20386;-74
2023/01/07 02:22:50;;;;;;;22.92;10.98;;;;;;;8.18;100.00;101381.47;5055793;28;20024;-73
2023/01/07 02:25:28;;;;;;;23.15;11.00;;;;;;;8.17;100.00;101371.78;5052972;28;20025;-73
2023/01/07 02:28:16;;;;;;;22.20;10.50;;;;;;;8.16;100.00;101374.41;5055707;28;20377;-73
2023/01/07 02:31:06;;;;;;;22.85;11.07;;;;;;;8.19;100.00;101385.00;5051641;28;20036;-73
2023/01/07 02:34:01;;;;;;;22.48;10.80;;;;;;;8.17;100.00;101381.44;5055598;28;20387;-73
2023/01/07 02:36:42;;;;;;;22.45;11.00;;;;;;;8.18;100.00;101372.66;5054269;28;20562;-74
2023/01/07 02:39:08;;;;;;;22.17;10.63;;;;;;;8.13;100.00;101379.59;5051734;28;20029;-74
2023/01/07 02:41:55;;;;;;;22.50;10.75;;;;;;;8.12;100.00;101375.16;5055717;28;20083;-73
2023/01/07 02:44:29;;;;;;;21.70;10.40;;;;;;;8.08;100.00;101368.06;5053271;28;20033;-76
2023/01/07 02:47:18;;;;;;;22.15;10.57;;;;;;;8.04;100.00;101364.47;5055507;28;20075;-73
2023/01/07 02:49:46;;;;;;;22.35;10.68;;;;;;;8.03;100.00;101365.31;5052771;28;20143;-72
2023/01/07 02:52:24;;;;;;;22.77;10.35;;;;;;;8.12;100.00;101356.75;5055154;28;20037;-74
2023/01/07 02:54:59;;;;;;;21.73;9.93;;;;;;;8.17;100.00;101370.91;5055495;28;20033;-79
2023/01/07 02:58:06;;;;;;;23.08;10.65;;;;;;;8.23;100.00;101357.88;5055218;28;20372;-78
2023/01/07 03:00:47;;;;;;;21.88;9.38;;;;;;;8.38;100.00;101362.59;5051875;28;20514;-79
2023/01/07 03:03:20;;;;;;;20.52;9.02;;;;;;;8.40;100.00;101362.63;5054991;28;20031;-73
2023/01/07 03:05:54;;;;;;;20.67;9.23;;;;;;;8.44;100.00;101359.19;5055101;28;20025;-73
2023/01/07 03:08:48;;;;;;;21.05;9.20;;;;;;;8.43;100.00;101353.03;5055181;28;20039;-73
2023/01/07 03:11:13;;;;;;;21.63;9.05;;;;;;;8.43;100.00;101347.78;5052930;28;20036;-75
2023/01/07 03:13:46;;;;;;;20.27;8.77;;;;;;;8.49;100.00;101350.56;5055071;28;20053;-72
2023/01/07 03:16:28;;;;;;;20.73;8.50;;;;;;;8.52;100.00;101337.44;5054998;28;20112;-73
2023/01/07 03:19:08;;;;;;;20.05;8.02;;;;;;;8.62;100.00;101343.81;5055019;28;20095;-72
2023/01/07 03:21:36;;;;;;;21.50;8.40;;;;;;;8.65;100.00;101341.22;5051582;28;20037;-72
2023/01/07 03:24:04;;;;;;;19.83;7.85;;;;;;;8.69;100.00;101332.53;5052545;28;20071;-74
2023/01/07 03:26:34;;;;;;;20.52;8.38;;;;;;;8.64;100.00;101318.34;5054789;28;20035;-72
2023/01/07 03:29:02;;;;;;;20.55;7.93;;;;;;;8.62;100.00;101320.09;5054779;28;20424;-73
2023/01/07 03:31:29;;;;;;;20.50;7.85;;;;;;;8.62;100.00;101319.19;5054565;28;20047;-72
2023/01/07 03:34:10;;;;;;;19.70;7.50;;;;;;;8.64;100.00;101318.34;5054492;28;20060;-73
2023/01/07 03:36:40;;;;;;;18.73;7.78;;;;;;;8.61;100.00;101326.19;5054741;28;20025;-72
2023/01/07 03:39:10;;;;;;;19.73;7.90;;;;;;;8.62;100.00;101325.34;5054618;28;20025;-72
2023/01/07 03:44:21;;;;;;;18.42;7.18;;;;;;;8.69;100.00;101314.09;5050810;28;20530;-72
2023/01/07 03:46:47;;;;;;;19.77;7.38;;;;;;;8.65;100.00;101306.97;5054304;28;20029;-72
2023/01/07 03:49:13;;;;;;;19.92;7.55;;;;;;;8.64;100.00;101302.53;5054360;28;20477;-73
2023/01/07 03:51:38;;;;;;;18.48;7.15;;;;;;;8.65;100.00;101296.41;5054148;28;20087;-76
2023/01/07 03:54:04;;;;;;;18.50;6.65;;;;;;;8.75;100.00;101296.59;5054382;28;20110;-71
2023/01/07 03:56:29;;;;;;;18.67;6.72;;;;;;;8.70;100.00;101286.84;5054537;28;20029;-73
2023/01/07 03:58:54;;;;;;;18.60;6.70;;;;;;;8.75;100.00;101297.47;5053999;28;20024;-72
2023/01/07 04:01:20;;;;;;;17.67;6.50;;;;;;;8.69;100.00;101293.00;5054468;28;20392;-78
2023/01/07 04:03:45;;;;;;;19.38;6.95;;;;;;;8.69;100.00;101293.00;5054026;28;20029;-76
2023/01/07 04:06:10;;;;;;;18.50;6.80;;;;;;;8.69;100.00;101287.72;5053943;28;20025;-72
2023/01/07 04:08:36;;;;;;;19.55;6.55;;;;;;;8.70;100.00;101284.19;5054080;28;20064;-74
2023/01/07 04:11:01;;;;;;;18.80;6.35;;;;;;;8.68;100.00;101283.31;5053737;28;20147;-73
2023/01/07 04:13:27;;;;;;;18.67;6.60;;;;;;;8.65;100.00;101277.97;5053717;28;20043;-76
2023/01/07 04:15:52;;;;;;;18.55;6.13;;;;;;;8.62;100.00;101270.00;5053904;28;20036;-73
2023/01/07 04:18:17;;;;;;;18.52;6.55;;;;;;;8.59;100.00;101285.78;5053677;28;20029;-73
2023/01/07 04:20:46;;;;;;;18.45;6.13;;;;;;;8.62;100.00;101275.28;5053120;28;20426;-73
2023/01/07 04:23:13;;;;;;;17.52;6.18;;;;;;;8.61;100.00;101260.31;5053629;28;20029;-75
2023/01/07 04:25:40;;;;;;;17.83;6.10;;;;;;;8.60;100.00;101250.63;5053460;28;20099;-74
2023/01/07 04:28:05;;;;;;;18.33;6.50;;;;;;;8.58;100.00;101246.19;5035888;28;20037;-73
2023/01/07 04:30:32;;;;;;;19.15;6.20;;;;;;;8.49;100.00;101253.06;5053684;28;20052;-73
2023/01/07 04:32:57;;;;;;;18.55;6.10;;;;;;;8.46;100.00;101246.84;5053318;28;20064;-73
2023/01/07 04:35:23;;;;;;;19.13;6.63;;;;;;;8.47;100.00;101243.34;5053286;28;20124;-73
2023/01/07 04:37:48;;;;;;;18.83;6.50;;;;;;;8.43;100.00;101245.03;5053504;28;20028;-76
2023/01/07 04:40:13;;;;;;;18.27;6.22;;;;;;;8.36;100.00;101246.63;5053557;28;20071;-73
2023/01/07 04:42:39;;;;;;;17.88;6.20;;;;;;;8.28;100.00;101232.41;5053415;28;20029;-76
2023/01/07 04:45:04;;;;;;;18.67;6.30;;;;;;;8.31;100.00;101231.59;5053369;28;20134;-73
2023/01/07 04:47:30;;;;;;;18.90;6.03;;;;;;;8.27;100.00;101227.13;5053154;28;20032;-73
2023/01/07 04:49:55;;;;;;;18.35;5.90;;;;;;;8.25;100.00;101228.84;5052935;28;20478;-72
2023/01/07 04:52:20;;;;;;;17.50;5.55;;;;;;;8.24;100.00;101225.31;5053005;28;20426;-72
2023/01/07 04:54:46;;;;;;;18.10;6.13;;;;;;;8.18;100.00;101222.56;5053029;28;20037;-80
2023/01/07 04:57:11;;;;;;;19.23;6.13;;;;;;;8.15;100.00;101231.28;5053219;28;20040;-74
2023/01/07 04:59:36;;;;;;;18.50;6.20;;;;;;;8.17;100.00;101224.31;5034844;28;20029;-74
2023/01/07 05:02:02;;;;;;;16.67;5.68;;;;;;;8.26;100.00;101225.38;5052970;28;20037;-73
2023/01/07 05:04:27;;;;;;;17.75;5.90;;;;;;;8.25;100.00;101215.66;5053236;28;20037;-72
2023/01/07 05:06:52;;;;;;;17.10;5.88;;;;;;;8.27;100.00;101217.50;5052976;28;20069;-71
2023/01/07 05:09:18;;;;;;;15.88;5.53;;;;;;;8.30;100.00;101209.63;5052756;28;20130;-72
2023/01/07 05:11:43;;;;;;;18.00;5.80;;;;;;;8.33;100.00;101214.97;5052708;28;20087;-72
2023/01/07 05:14:10;;;;;;;16.95;5.35;;;;;;;8.33;100.00;101214.97;5052591;28;20029;-72
2023/01/07 05:16:36;;;;;;;17.00;5.60;;;;;;;8.30;100.00;101209.63;5052659;28;20480;-73
2023/01/07 05:19:01;;;;;;;17.17;5.53;;;;;;;8.25;100.00;101208.66;5052808;28;20025;-71
2023/01/07 05:21:26;;;;;;;17.05;5.45;;;;;;;8.26;100.00;101201.66;5052853;28;20041;-72
2023/01/07 05:23:52;;;;;;;16.83;5.35;;;;;;;8.28;100.00;101199.94;5052358;28;20064;-78
2023/01/07 05:26:18;;;;;;;17.23;5.50;;;;;;;8.20;100.00;101205.06;5052703;28;20017;-72
2023/01/07 05:28:44;;;;;;;15.57;5.13;;;;;;;8.11;100.00;101194.31;5052680;28;20352;-72
2023/01/07 05:31:09;;;;;;;17.83;5.30;;;;;;;8.15;100.00;101188.25;5052735;28;20091;-73
2023/01/07 05:33:34;;;;;;;16.08;4.88;;;;;;;8.24;100.00;101196.31;5051804;28;20476;-72
2023/01/07 05:36:00;;;;;;;17.38;4.90;;;;;;;8.19;100.00;101200.63;5052392;28;20041;-71
2023/01/07 05:38:25;;;;;;;14.00;4.80;;;;;;;8.15;100.00;101193.53;5052588;28;20029;-72
2023/01/07 05:40:50;;;;;;;16.20;4.82;;;;;;;8.21;100.00;101201.53;5052409;28;20112;-72
2023/01/07 05:43:16;;;;;;;16.05;5.00;;;;;;;8.20;100.00;101203.28;5052261;28;20102;-72
2023/01/07 05:45:44;;;;;;;14.75;4.70;;;;;;;8.24;100.00;101205.97;5052518;28;20033;-72
2023/01/07 05:48:09;;;;;;;15.57;4.68;;;;;;;8.32;100.00;101196.50;5034562;28;20032;-72
2023/01/07 05:50:35;;;;;;;17.08;4.82;;;;;;;8.34;100.00;101193.03;5051961;28;20045;-73
2023/01/07 05:53:00;;;;;;;13.55;4.30;;;;;;;8.34;100.00;101190.41;5052392;28;20474;-76
2023/01/07 05:55:25;;;;;;;15.52;4.60;;;;;;;8.43;100.00;101192.31;5052297;28;20040;-74
2023/01/07 05:57:51;;;;;;;11.75;4.20;;;;;;;8.44;100.00;101195.84;5052167;28;20033;-72
2023/01/07 06:00:17;;;;;;;14.88;4.53;;;;;;;8.46;100.00;101188.88;5034599;28;20025;-76
2023/01/07 06:02:42;;;;;;;14.40;4.30;;;;;;;8.46;100.00;101179.25;5052156;28;20183;-72
2023/01/07 06:05:08;;;;;;;12.40;4.30;;;;;;;8.45;100.00;101184.47;5052194;28;20106;-73
2023/01/07 06:07:33;;;;;;;13.98;4.15;;;;;;;8.49;100.00;101181.94;5052282;28;20029;-72
2023/01/07 06:09:58;;;;;;;11.80;4.03;;;;;;;8.49;100.00;101178.38;5052144;28;20033;-73
2023/01/07 06:12:24;;;;;;;14.07;4.00;;;;;;;8.51;100.00;101174.06;5047973;28;20052;-73
2023/01/07 06:14:49;;;;;;;14.15;4.15;;;;;;;8.51;100.00;101174.06;5052055;28;20029;-79
2023/01/07 06:17:15;;;;;;;12.57;3.80;;;;;;;8.51;100.00;101168.78;5051976;28;20186;-73
2023/01/07 06:19:40;;;;;;;11.98;3.83;;;;;;;8.50;100.00;101170.53;5034500;28;20486;-73
2023/01/07 06:22:05;;;;;;;10.20;3.58;;;;;;;8.55;100.00;101162.72;5051927;28;20037;-79
2023/01/07 06:24:30;;;;;;;10.80;3.58;;;;;;;8.59;100.00;101169.81;5034078;28;20036;-73
2023/01/07 06:26:56;;;;;;;10.63;3.58;;;;;;;8.53;100.00;101161.78;5052080;28;20108;-72
2023/01/07 06:29:21;;;;;;;12.20;3.50;;;;;;;8.50;100.00;101160.00;5051946;28;20057;-71
2023/01/07 06:31:46;;;;;;;10.93;3.63;;;;;;;8.61;100.00;101154.03;5051808;28;20116;-71
2023/01/07 06:34:12;;;;;;;10.40;3.47;;;;;;;8.53;100.00;101138.06;5052066;28;20111;-72
2023/01/07 06:36:37;;;;;;;11.25;3.40;;;;;;;8.47;100.00;101148.50;5051794;28;20033;-76
2023/01/07 06:39:03;;;;;;;9.18;3.33;;;;;;;8.51;100.00;101142.44;5051786;28;20037;-75
2023/01/07 06:41:28;;;;;;;9.95;3.35;;;;;;;8.47;100.00;101148.50;5052041;28;20467;-72
2023/01/07 06:43:53;;;;;;;11.07;3.30;;;;;;;8.47;100.00;101138.84;5035472;28;20041;-72
2023/01/07 06:46:19;;;;;;;9.70;3.35;;;;;;;8.52;100.00;101133.69;5055876;28;20033;-81
2023/01/07 06:48:44;;;;;;;11.77;3.40;;;;;;;8.49;100.00;101134.50;5037459;28;20025;-72
2023/01/07 06:51:09;;;;;;;9.55;3.22;;;;;;;8.52;100.00;101133.69;5054832;28;20056;-72
2023/01/07 06:53:35;;;;;;;12.27;3.40;;;;;;;8.54;100.00;101140.72;5055545;28;20041;-72
2023/01/07 06:56:00;;;;;;;9.35;3.25;;;;;;;8.52;100.00;101133.69;5055313;28;20059;-72
2023/01/07 06:58:25;;;;;;;9.35;3.20;;;;;;;8.53;100.00;101141.59;5055156;28;20044;-74
2023/01/07 07:00:51;;;;;;;8.95;3.20;;;;;;;8.54;100.00;101137.22;5055536;28;20440;-72
2023/01/07 07:03:16;;;;;;;10.13;3.20;;;;;;;8.48;100.00;101135.34;5055245;28;20476;-72
2023/01/07 07:05:41;;;;;;;10.07;3.33;;;;;;;8.50;100.00;101128.38;5055053;28;20099;-72
2023/01/07 07:08:07;;;;;;;8.43;3.17;;;;;;;8.53;100.00;101122.25;5055249;28;20032;-73
2023/01/07 07:10:32;;;;;;;8.57;3.05;;;;;;;8.53;100.00;101120.53;5054928;28;20430;-75
2023/01/07 07:12:58;;;;;;;10.40;3.10;;;;;;;8.53;100.00;101107.34;5054882;28;20476;-73
2023/01/07 07:15:23;;;;;;;7.47;2.90;;;;;;;8.57;100.00;101121.44;5055131;28;20053;-78
2023/01/07 07:17:48;;;;;;;8.35;3.08;;;;;;;8.54;100.00;101108.22;5054791;28;20040;-76
2023/01/07 07:20:14;;;;;;;7.78;2.95;;;;;;;8.53;100.00;101109.97;5054933;28;20021;-72
2023/01/07 07:22:47;;;;;;;11.30;3.30;;;;;;;8.56;100.00;101109.13;5054549;28;20460;-73
2023/01/07 07:25:13;;;;;;;8.85;3.20;;;;;;;8.55;100.00;101110.00;5051381;28;20028;-73
2023/01/07 07:27:38;;;;;;;8.75;3.17;;;;;;;8.49;100.00;101110.78;5054652;28;20483;-73
2023/01/07 07:30:04;;;;;;;8.23;3.10;;;;;;;8.48;100.00;101105.50;5054820;28;20037;-75
2023/01/07 07:32:30;;;;;;;9.60;3.20;;;;;;;8.42;100.00;101102.69;5054453;28;20090;-72
2023/01/07 07:34:55;;;;;;;9.43;3.20;;;;;;;8.43;100.00;101094.84;5054904;28;20506;-72
2023/01/07 07:37:21;;;;;;;10.05;3.20;;;;;;;8.49;100.00;101101.97;5054520;28;20040;-73
2023/01/07 07:39:46;;;;;;;7.95;3.10;;;;;;;8.43;100.00;101102.75;5054379;28;20052;-73
2023/01/07 07:42:12;;;;;;;8.70;3.00;;;;;;;8.37;100.00;101100.91;5054616;28;20128;-73
2023/01/07 07:44:37;;;;;;;9.98;3.20;;;;;;;8.42;100.00;101089.53;5036478;28;20029;-85
2023/01/07 07:47:02;;;;;;;7.57;3.03;;;;;;;8.43;100.00;101089.56;5054134;28;20170;-83
2023/01/07 07:49:29;;;;;;;9.05;3.13;;;;;;;8.46;100.00;101092.28;5054189;28;20384;-81
2023/01/07 07:51:54;;;;;;;7.63;2.97;;;;;;;8.46;100.00;101078.22;5053957;28;20041;-81
2023/01/07 07:54:20;;;;;;;10.38;3.30;;;;;;;8.43;100.00;101076.41;5053822;28;20032;-85
2023/01/07 07:56:45;;;;;;;9.40;3.10;;;;;;;8.48;100.00;101076.50;5053591;28;20028;-80
2023/01/07 07:59:10;;;;;;;9.52;2.90;;;;;;;8.48;100.00;101081.78;5054096;28;20108;-85
2023/01/07 08:01:36;;;;;;;7.90;3.10;;;;;;;8.42;100.00;101074.63;5053741;28;20056;-82
2023/01/07 08:04:01;;;;;;;9.45;3.03;;;;;;;8.41;100.00;101078.09;5054109;28;20048;-84
2023/01/07 08:06:26;;;;;;;8.90;3.13;;;;;;;8.41;100.00;101075.47;5035964;28;20037;-81
2023/01/07 08:08:52;;;;;;;7.25;2.90;;;;;;;8.37;100.00;101064.00;5053807;28;20036;-80
2023/01/07 08:11:17;;;;;;;9.02;3.15;;;;;;;8.45;100.00;101060.66;5053952;28;20021;-81
2023/01/07 08:13:43;;;;;;;8.40;3.00;;;;;;;8.47;100.00;101061.56;5053750;28;20068;-84
2023/01/07 08:16:09;;;;;;;8.32;3.22;;;;;;;8.50;100.00;101073.06;5053933;28;20117;-86
2023/01/07 08:18:34;;;;;;;10.18;3.13;;;;;;;8.53;100.00;101064.28;5053662;28;20111;-86
2023/01/07 08:21:00;;;;;;;7.55;3.20;;;;;;;8.56;100.00;101069.59;5053779;28;20047;-72
2023/01/07 08:23:26;;;;;;;8.60;2.90;;;;;;;8.63;100.00;101057.41;5049717;28;20039;-73
2023/01/07 08:25:52;;;;;;;8.60;3.10;;;;;;;8.66;100.00;101068.88;5053606;28;20102;-76
2023/01/07 08:28:17;;;;;;;9.63;3.10;;;;;;;8.70;100.00;101075.97;5035808;28;20422;-72
2023/01/07 08:30:43;;;;;;;7.00;3.00;;;;;;;8.70;100.00;101057.53;5053699;28;20498;-73
2023/01/07 08:33:09;;;;;;;8.57;2.90;;;;;;;8.70;100.00;101052.25;5053341;28;20076;-73
2023/01/07 08:35:34;;;;;;;9.43;2.95;;;;;;;8.75;100.00;101048.81;5053322;28;20075;-77
2023/01/07 08:38:04;;;;;;;9.63;2.90;;;;;;;8.74;100.00;101053.22;5053576;28;20091;-75
2023/01/07 08:40:30;;;;;;;8.02;2.90;;;;;;;8.76;100.00;101047.97;5049833;28;20017;-73
2023/01/07 08:43:00;;;;;;;9.38;2.88;;;;;;;8.80;100.00;101049.78;5053359;28;20067;-72
2023/01/07 08:45:26;;;;;;;8.95;2.90;;;;;;;8.79;100.00;101046.22;5053404;28;20021;-72
2023/01/07 08:47:51;;;;;;;8.40;2.90;;;;;;;8.79;100.00;101035.69;5053100;28;20375;-73
2023/01/07 08:50:16;;;;;;;8.88;2.80;;;;;;;8.85;100.00;101045.44;5053003;28;20060;-77
2023/01/07 08:52:45;;;;;;;8.15;2.78;;;;;;;8.92;100.00;101042.03;5053128;28;20041;-73
2023/01/07 08:55:10;;;;;;;9.68;3.00;;;;;;;8.99;100.00;101037.75;5052986;28;20029;-75
2023/01/07 08:57:36;;;;;;;7.75;2.90;;;;;;;8.94;100.00;101037.69;5052914;28;20379;-73
2023/01/07 09:00:01;;;;;;;7.93;2.85;;;;;;;8.95;100.00;101034.16;5053121;28;20337;-76
2023/01/07 09:02:26;;;;;;;8.95;3.05;;;;;;;9.00;100.00;101043.03;5052769;28;20066;-72
2023/01/07 09:04:52;;;;;;;7.93;2.80;;;;;;;9.03;100.00;101040.44;5052851;28;20484;-73
2023/01/07 09:07:17;;;;;;;7.47;2.80;;;;;;;8.98;100.00;101039.47;5052896;28;20480;-73
2023/01/07 09:09:42;;;;;;;9.35;2.83;;;;;;;8.98;100.00;101036.84;5053032;28;20333;-74
2023/01/07 09:12:08;;;;;;;8.98;2.80;;;;;;;9.01;100.00;101022.81;5052594;28;20430;-79
2023/01/07 09:14:33;;;;;;;8.43;2.90;;;;;;;9.05;100.00;101020.25;5053035;28;20381;-73
2023/01/07 09:16:58;;;;;;;7.40;2.72;;;;;;;9.13;100.00;101023.00;5052662;28;20029;-72
2023/01/07 09:19:24;;;;;;;7.82;2.78;;;;;;;9.12;100.00;101021.22;5052843;28;20104;-74
2023/01/07 09:21:50;;;;;;;10.82;3.00;;;;;;;9.14;100.00;101015.97;5052596;28;20029;-74
2023/01/07 09:24:16;;;;;;;7.38;2.70;;;;;;;9.16;100.00;101014.22;5052544;28;20472;-77
2023/01/07 09:26:42;;;;;;;8.77;2.55;;;;;;;9.24;100.00;101020.47;5052670;28;20108;-73
2023/01/07 09:29:08;;;;;;;7.63;2.70;;;;;;;9.24;100.00;101015.22;5052436;28;20029;-72
2023/01/07 09:31:33;;;;;;;7.68;2.60;;;;;;;9.25;100.00;101003.81;5052451;28;20037;-71
2023/01/07 09:33:58;;;;;;;5.43;2.55;;;;;;;9.31;100.00;101003.00;5052621;28;20036;-79
2023/01/07 09:36:24;;;;;;;4.72;2.50;;;;;;;9.32;100.00;101003.00;5052300;28;20075;-72
2023/01/07 09:38:49;;;;;;;5.72;2.60;;;;;;;9.32;100.00;100995.09;5052234;28;20116;-71
2023/01/07 09:41:26;;;;;;;5.18;2.40;;;;;;;9.35;100.00;100989.84;5052639;28;20040;-71
2023/01/07 09:44:05;;;;;;;7.32;2.50;;;;;;;9.38;100.00;100986.38;5048731;28;20025;-84
2023/01/07 09:46:31;;;;;;;6.13;2.50;;;;;;;9.45;100.00;100984.66;5050720;28;20036;-83
2023/01/07 09:49:00;;;;;;;5.82;2.50;;;;;;;9.50;100.00;100983.84;5050889;28;20033;-79
2023/01/07 09:51:42;;;;;;;5.28;2.50;;;;;;;9.71;100.00;100972.66;5052216;28;20056;-82
2023/01/07 09:54:24;;;;;;;4.28;2.30;;;;;;;9.76;100.00;100976.22;5055238;28;20022;-81
2023/01/07 09:56:50;;;;;;;7.32;2.50;;;;;;;9.90;100.00;100968.44;5050531;28;20017;-86
2023/01/07 09:59:17;;;;;;;6.32;2.40;;;;;;;10.11;100.00;100962.44;5052721;28;20486;-79
2023/01/07 10:01:48;;;;;;;7.20;2.50;;;;;;;10.31;100.00;100967.00;5051037;28;20033;-82
2023/01/07 10:04:33;;;;;;;6.55;2.40;;;;;;;10.45;100.00;100952.13;5051374;28;20061;-80
2023/01/07 10:07:23;;;;;;;5.22;2.47;;;;;;;10.55;100.00;100952.22;5054393;28;20078;-81
2023/01/07 10:10:06;;;;;;;6.40;2.50;;;;;;;10.71;100.00;100948.78;5052712;28;20025;-81
2023/01/07 10:12:49;;;;;;;6.60;2.60;;;;;;;10.70;100.00;100952.28;5056567;28;20033;-78
2023/01/07 10:15:42;;;;;;;5.03;2.20;;;;;;;10.69;100.00;100928.47;5048400;28;20021;-83
2023/01/07 10:18:27;;;;;;;;;;;;;;;10.66;100.00;100913.50;5056089;28;20017;-82
2023/01/07 10:21:05;;;;;;;4.38;2.38;;;;;;;10.64;100.00;100909.97;5056242;28;19925;-78
2023/01/07 10:23:39;;;;;;;7.20;2.60;;;;;;;10.72;100.00;100924.09;5060753;28;20025;-74
2023/01/07 10:26:12;;;;;;;5.32;2.58;;;;;;;10.85;100.00;100910.94;5057937;28;20100;-73
2023/01/07 10:28:48;;;;;;;5.80;2.50;;;;;;;11.07;100.00;100915.44;5055961;28;20021;-74
2023/01/07 10:31:26;;;;;;;5.97;2.30;;;;;;;11.20;100.00;100899.59;5057105;28;20025;-76
2023/01/07 10:33:52;;;;;;;6.95;2.40;;;;;;;11.29;100.00;100889.91;5062945;28;20108;-86
2023/01/07 10:36:23;;;;;;;6.53;2.40;;;;;;;11.30;100.00;100893.44;5059191;28;20108;-75
2023/01/07 10:39:20;;;;;;;5.75;2.30;;;;;;;11.46;100.00;100887.31;5062325;28;20103;-79
2023/01/07 10:42:33;;;;;;;5.28;2.30;;;;;;;11.47;100.00;100878.47;5043586;28;20186;-81
2023/01/07 10:45:08;;;;;;;4.07;2.20;;;;;;;11.47;100.00;100869.66;5010927;28;20496;-75
2023/01/07 10:47:45;;;;;;;4.72;2.20;;;;;;;11.71;100.00;100868.78;4997596;28;20492;-81
2023/01/07 10:50:29;;;;;;;7.03;2.40;;;;;;;11.98;100.00;100857.31;5037160;28;20377;-81
2023/01/07 10:53:06;;;;;;;6.60;2.58;;;;;;;12.19;100.00;100864.38;5054578;28;20043;-82
2023/01/07 10:55:40;;;;;;;5.30;2.20;;;;;;;12.40;100.00;100865.19;5052692;28;20031;-81
2023/01/07 10:58:10;;;;;;;3.83;2.22;;;;;;;12.46;100.00;100856.34;5057766;28;20031;-74
2023/01/07 11:00:40;;;;;;;3.42;2.20;;;;;;;12.70;100.00;100834.16;5053659;28;20107;-74
2023/01/07 11:03:22;;;;;;;4.97;2.40;;;;;;;12.72;100.00;100848.28;5054751;28;20028;-76
2023/01/07 11:05:53;;;;;;;3.63;2.20;;;;;;;12.70;100.00;100840.34;5054831;28;20485;-77
2023/01/07 11:08:39;;;;;;;5.20;2.20;;;;;;;12.64;100.00;100839.47;5055256;28;20021;-79
2023/01/07 11:11:06;;;;;;;5.50;2.30;;;;;;;12.31;100.00;100844.03;5052485;28;20033;-74
2023/01/07 11:13:35;;;;;;;4.93;2.40;;;;;;;11.93;100.00;100834.34;5054893;28;20033;-75
2023/01/07 11:16:16;;;;;;;4.30;2.45;;;;;;;11.84;100.00;100829.94;5054996;28;20044;-75
2023/01/07 11:19:04;;;;;;;5.10;2.30;;;;;;;11.86;100.00;100830.81;5054842;28;20025;-74
2023/01/07 11:21:38;;;;;;;5.72;2.30;;;;;;;11.69;100.00;100821.13;5051423;28;20029;-74
2023/01/07 11:24:30;;;;;;;5.10;2.25;;;;;;;11.89;100.00;100827.28;5052036;28;20104;-74
2023/01/07 11:27:05;;;;;;;3.35;2.17;;;;;;;11.57;100.00;100814.97;5047100;28;20029;-79
2023/01/07 11:29:40;;;;;;;4.68;2.25;;;;;;;11.81;100.00;100796.41;5052861;28;20102;-78